Hlavní strana
METAR-TAF:

METAR-TAF

Letiště :

Lycksele, Švédsko

zeměpisná šířka: 64-32-51N, zeměpisná délka: 018-43-03E, výška: 211 m

Aktuální stav počasí

Zpráva byla vytvořena před 14 minutami, v 12:50 UTC
Západoseverozápadní vítr 1 kt
Teplota -1°C
Vlhkost vzduchu 93%
Tlak 1029 hPa
Viditelnost: 4300 m
kouřmo

METAR: ESNL 211250Z AUTO 30001KT 4300 BR OVC002/// M01/M02 Q1029

Čas: 14:04 (13:04 UTC)


TAF: chybějící

Stav a předpovědi počasí z více než 4 000 letišť (zprávy METAR a TAF).

Červené a žluté tečky na mapě představují dostupné meteorologické stanice.

Když kurzor umístíte na tečku, zobrazí se název stanice.

Pak kliknutím zobrazíte stav a předpověď počasí.

Chcete-li změnit mapu, kliknutím na zelené tlačítko se znaménkem +mapu přiblížíte, kliknutím na zelené tlačítko se znaménkem – mapu oddálíte a kliknutím na zelené šipky přejdete na sousední mapy.


METAR-TAF: